Terminal Aerodrome Forecast
Issued by NWS Charleston, WV

Current Version | Previous Version | Text Only | Print | Product List | Glossary Off
Versions: 1 2 3 4 5 6 7 8 9 10 11 12 13 14 15 16 17 18 19 20 21 22 23 24 25 26 27

000
FTUS41 KRLX 281740
TAFPKB
TAF
KPKB 281740Z 2818/2918 00000KT P6SM SCT050
     FM282100 00000KT P6SM BKN050
     FM290700 00000KT 6SM BR BKN050
     FM290900 00000KT 6SM BR BKN035
     FM291400 00000KT P6SM BKN015
     FM291600 VRB03KT P6SM BKN025
     FM291700 13004KT P6SM VCTS BKN025CB=

USA.gov is the U.S. government's official web portal to all federal, state and local government web resources and services.